KPGD/PGD METAR and TAF weather

Enter ICAO airport designator
Station Type Date Time Source
KPGD METAR 2021/04/18 01:53 UTC NOAA

KPGD 180153Z AUTO 24006KT 10SM CLR 24/22 A2991 RMK AO2 SLP126 T02440217


Station Type Date Time Source
KPGD Decoded METAR 2021/04/18 01:53 UTC NOAA

PUNTA GORDA CHARLOTTE COUNTY, FL, United States (KPGD) 26-55N 82-00W 7M
Apr 17, 2021 - 09:53 PM EDT / 2021.04.18 0153 UTC
Wind: from the WSW (240 degrees) at 7 MPH (6 KT):0
Visibility: 10 mile(s):0
Sky conditions: clear
Temperature: 75.9 F (24.4 C)
Dew Point: 71.1 F (21.7 C)
Relative Humidity: 84%
Pressure (altimeter): 29.91 in. Hg (1012 hPa)
ob: KPGD 180153Z AUTO 24006KT 10SM CLR 24/22 A2991 RMK AO2 SLP126 T02440217
cycle: 2

Station Type Date Time Source
KPGD TAF 2021/04/17 18:42 UTC NOAA

TAF KPGD 171741Z 1718/1818 24014G20KT P6SM SCT025 SCT250
FM180100 25005KT P6SM FEW025 SCT250
FM180500 VRB04KT 6SM BR SCT020 BKN250
FM181400 23011KT P6SM BKN025 BKN080

Example: see airport list